Aviation Digital Data Service (ADDS)

Output produced by TAFs form (0053 UTC 21 November 2017)
found at http://www.aviationweather.gov/adds/tafs/
 
METAR text: RJSI 210000Z 34008KT 9999 FEW020 SCT040 BKN060 01/M02 Q1024
Conditions at: RJSI (HANAMAKI AIRPORT, JP) observed 0000 UTC 21 November 2017
Temperature: 1.0°C (34°F)
Dewpoint: -2.0°C (28°F) [RH = 80%]
Pressure (altimeter): 30.24 inches Hg (1024.0 mb)
Winds: from the NNW (340 degrees) at 9 MPH (8 knots; 4.2 m/s)
Visibility: 6 or more miles (10+ km)
Ceiling: 6000 feet AGL
Clouds: few clouds at 2000 feet AGL
scattered clouds at 4000 feet AGL
broken clouds at 6000 feet AGL
Weather: no significant weather observed at this time